Time;durP1;ratioP1;P1;durP2;ratioP2;P2;SDS_P1;SDS_P2;PMS_P1;PMS_P2;Temp;Humidity;BMP_temperature;BMP_pressure;BME280_temperature;BME280_humidity;BME280_pressure;Samples;Min_cycle;Max_cycle;Signal;HPM_P1;HPM_P2
2021/03/21 00:00:54;;;;;;;8.60;5.33;;;3.10;95.20;;;;;;5079839;28;20190;-84
2021/03/21 00:03:20;;;;;;;10.00;5.27;;;3.10;95.20;;;;;;5111089;27;20264;-85
2021/03/21 00:05:46;;;;;;;10.03;5.20;;;3.10;95.20;;;;;;5075597;28;20186;-83
2021/03/21 00:08:17;;;;;;;9.03;3.87;;;3.20;95.20;;;;;;5117940;27;20185;-84
2021/03/21 00:10:51;;;;;;;3.30;3.00;;;3.10;95.30;;;;;;5076803;28;20174;-84
2021/03/21 00:13:18;;;;;;;6.33;3.90;;;3.10;95.20;;;;;;5084694;28;20204;-83
2021/03/21 00:15:44;;;;;;;6.03;3.20;;;3.10;95.40;;;;;;5090117;28;20215;-84
2021/03/21 00:18:11;;;;;;;7.40;3.60;;;3.10;95.30;;;;;;5086639;28;20671;-83
2021/03/21 00:20:38;;;;;;;10.90;3.97;;;3.10;95.30;;;;;;5124080;27;20185;-83
2021/03/21 00:23:05;;;;;;;4.40;3.37;;;3.10;95.40;;;;;;5088437;28;20245;-84
2021/03/21 00:25:33;;;;;;;6.77;4.43;;;3.10;95.40;;;;;;5091931;28;20178;-82
2021/03/21 00:28:00;;;;;;;7.97;3.53;;;3.10;95.40;;;;;;5091205;28;20210;-83
2021/03/21 00:30:32;;;;;;;2.73;2.53;;;3.00;95.40;;;;;;5073020;28;20710;-84
2021/03/21 00:32:58;;;;;;;3.30;2.23;;;3.00;95.50;;;;;;5109763;27;20258;-83
2021/03/21 00:35:25;;;;;;;3.97;2.97;;;3.00;95.50;;;;;;5093505;28;20280;-83
2021/03/21 00:37:56;;;;;;;6.63;3.70;;;3.00;95.50;;;;;;5114636;28;20174;-83
2021/03/21 00:40:22;;;;;;;4.43;3.03;;;3.00;95.50;;;;;;5108876;28;20264;-83
2021/03/21 00:42:48;;;;;;;3.00;2.60;;;3.00;95.60;;;;;;5076320;28;20193;-83
2021/03/21 00:45:15;;;;;;;3.43;3.00;;;3.00;95.70;;;;;;5081520;28;20186;-83
2021/03/21 00:47:41;;;;;;;7.47;2.13;;;3.00;95.60;;;;;;5105516;28;20239;-83
2021/03/21 00:50:10;;;;;;;2.17;2.07;;;3.00;95.60;;;;;;5114080;27;20177;-82
2021/03/21 00:52:36;;;;;;;2.60;2.40;;;3.10;95.70;;;;;;5108636;28;20209;-82
2021/03/21 00:55:03;;;;;;;0.93;0.93;;;3.10;95.70;;;;;;5099488;28;20661;-83
2021/03/21 00:57:29;;;;;;;1.87;1.63;;;3.00;95.50;;;;;;5106423;28;20220;-82
2021/03/21 00:59:54;;;;;;;1.43;1.43;;;3.00;95.60;;;;;;5106796;28;20673;-82
2021/03/21 01:02:20;;;;;;;1.33;1.33;;;3.00;95.60;;;;;;5088205;28;20193;-82
2021/03/21 01:04:47;;;;;;;1.40;0.90;;;3.00;95.70;;;;;;5091323;28;20261;-83
2021/03/21 01:07:13;;;;;;;0.83;0.83;;;3.00;95.80;;;;;;5073796;28;20185;-83
2021/03/21 01:09:39;;;;;;;0.47;0.47;;;2.90;95.80;;;;;;5090122;28;20231;-83
2021/03/21 01:12:05;;;;;;;0.50;0.50;;;2.70;96.20;;;;;;5072467;28;20190;-83
2021/03/21 01:14:31;;;;;;;0.60;0.60;;;2.70;96.30;;;;;;5106068;28;20186;-82
2021/03/21 01:16:56;;;;;;;0.57;0.57;;;2.60;96.50;;;;;;5107547;28;20208;-81
2021/03/21 01:19:22;;;;;;;0.63;0.63;;;2.60;96.90;;;;;;5089492;28;20201;-81
2021/03/21 01:21:48;;;;;;;1.53;0.53;;;2.50;97.00;;;;;;5104983;28;20693;-85
2021/03/21 01:24:22;;;;;;;0.80;0.80;;;2.40;97.40;;;;;;5082449;28;20355;-85
2021/03/21 01:26:49;;;;;;;0.50;0.50;;;2.40;97.50;;;;;;5098164;28;20180;-85
2021/03/21 01:29:15;;;;;;;0.47;0.37;;;2.40;97.80;;;;;;5073249;28;20182;-85
2021/03/21 01:31:41;;;;;;;0.23;0.23;;;2.30;97.80;;;;;;5117938;27;20182;-84
2021/03/21 01:34:06;;;;;;;1.43;0.47;;;2.20;98.40;;;;;;5091387;28;20268;-85
2021/03/21 01:36:36;;;;;;;0.30;0.30;;;2.20;98.50;;;;;;5106503;28;20200;-84
2021/03/21 01:39:15;;;;;;;0.20;0.20;;;2.20;98.50;;;;;;5090880;28;20666;-85
2021/03/21 01:41:41;;;;;;;0.20;0.20;;;2.10;98.50;;;;;;5120629;27;20178;-83
2021/03/21 01:44:14;;;;;;;0.20;0.20;;;2.10;98.50;;;;;;5107146;28;20213;-86
2021/03/21 01:47:01;;;;;;;0.10;0.10;;;2.10;98.50;;;;;;5080372;28;20216;-84
2021/03/21 01:49:32;;;;;;;0.20;0.20;;;2.00;98.50;;;;;;5112931;27;20170;-85
2021/03/21 01:52:00;;;;;;;0.30;0.27;;;2.00;98.50;;;;;;5083897;28;20189;-84
2021/03/21 01:54:26;;;;;;;0.30;0.30;;;2.00;98.50;;;;;;5094414;28;20178;-85
2021/03/21 01:56:55;;;;;;;0.10;0.10;;;2.00;98.50;;;;;;5106644;28;20198;-85
2021/03/21 01:59:27;;;;;;;0.10;0.10;;;2.00;98.50;;;;;;5084801;28;20257;-84
2021/03/21 02:01:55;;;;;;;0.20;0.13;;;1.80;98.50;;;;;;5106928;28;20194;-82
2021/03/21 02:04:21;;;;;;;0.10;0.10;;;1.80;98.50;;;;;;5090073;28;20220;-83
2021/03/21 02:07:06;;;;;;;0.13;0.13;;;1.90;98.50;;;;;;5090247;28;20182;-82
2021/03/21 02:09:54;;;;;;;0.20;0.20;;;1.90;98.50;;;;;;5068721;28;20221;-85
2021/03/21 02:12:38;;;;;;;0.10;0.10;;;2.00;98.50;;;;;;5070822;28;20595;-82
2021/03/21 02:15:23;;;;;;;0.10;0.10;;;2.00;98.50;;;;;;5093619;28;20185;-83
2021/03/21 02:18:14;;;;;;;0.10;0.10;;;2.00;98.50;;;;;;5098183;28;20686;-83
2021/03/21 02:20:47;;;;;;;0.13;0.07;;;2.00;98.50;;;;;;5100189;28;20170;-83
2021/03/21 02:23:35;;;;;;;0.20;0.20;;;2.10;98.50;;;;;;5101141;28;20662;-82
2021/03/21 02:26:28;;;;;;;0.20;0.20;;;2.10;98.50;;;;;;5024829;28;20207;-82
2021/03/21 02:29:30;;;;;;;0.10;0.10;;;2.10;98.50;;;;;;5018277;28;20190;-83
2021/03/21 02:32:16;;;;;;;0.10;0.10;;;2.10;98.50;;;;;;5025014;28;20192;-83
2021/03/21 02:34:52;;;;;;;0.20;0.20;;;2.10;98.50;;;;;;5011650;28;20327;-83
2021/03/21 02:37:41;;;;;;;0.20;0.20;;;2.10;98.50;;;;;;5028362;28;20346;-84
2021/03/21 02:40:32;;;;;;;0.10;0.10;;;2.10;98.50;;;;;;5046381;28;21093;-81
2021/03/21 02:43:24;;;;;;;0.20;0.20;;;2.20;98.50;;;;;;5026124;28;20580;-83
2021/03/21 02:45:54;;;;;;;0.10;0.10;;;2.20;98.50;;;;;;5031811;28;20180;-82
2021/03/21 02:48:37;;;;;;;0.17;0.17;;;2.20;98.50;;;;;;5026885;28;20199;-82
2021/03/21 02:51:15;;;;;;;0.00;0.00;;;2.20;98.50;;;;;;5022368;28;20233;-82
2021/03/21 02:53:48;;;;;;;0.10;0.10;;;2.20;98.50;;;;;;5026997;28;20242;-83
2021/03/21 02:56:18;;;;;;;0.37;0.37;;;2.10;98.50;;;;;;5036813;28;20192;-82
2021/03/21 02:58:49;;;;;;;0.20;0.20;;;2.10;98.50;;;;;;5043101;28;20211;-84
2021/03/21 03:01:29;;;;;;;0.20;0.10;;;2.10;98.50;;;;;;5030145;28;20187;-84
2021/03/21 03:04:01;;;;;;;0.50;0.20;;;2.10;98.50;;;;;;5074187;28;20269;-84
2021/03/21 03:06:49;;;;;;;0.20;0.20;;;2.00;98.50;;;;;;5078695;28;20571;-83
2021/03/21 03:09:32;;;;;;;0.10;0.10;;;2.00;98.50;;;;;;5104175;28;20182;-84
2021/03/21 03:12:32;;;;;;;0.53;0.40;;;2.00;98.50;;;;;;5088844;28;20994;-83
2021/03/21 03:14:58;;;;;;;0.10;0.10;;;2.00;98.50;;;;;;5103513;28;20242;-83
2021/03/21 03:17:38;;;;;;;0.20;0.20;;;2.00;98.50;;;;;;5113218;28;20268;-82
2021/03/21 03:20:25;;;;;;;1.70;0.20;;;2.00;98.50;;;;;;5107472;28;20217;-82
2021/03/21 03:23:02;;;;;;;0.33;0.20;;;2.00;98.50;;;;;;5076521;28;20189;-82
2021/03/21 03:25:46;;;;;;;0.10;0.10;;;2.00;98.50;;;;;;5094326;28;21020;-82
2021/03/21 03:28:37;;;;;;;0.20;0.10;;;1.90;98.50;;;;;;5095621;28;20182;-81
2021/03/21 03:31:15;;;;;;;0.30;0.30;;;2.00;98.50;;;;;;5107644;28;20183;-82
2021/03/21 03:33:41;;;;;;;0.10;0.10;;;1.80;98.50;;;;;;5070825;28;20196;-82
2021/03/21 03:36:10;;;;;;;0.10;0.10;;;1.80;98.50;;;;;;5078332;28;20629;-82
2021/03/21 03:38:38;;;;;;;0.37;0.37;;;1.90;98.50;;;;;;5093052;28;20184;-82
2021/03/21 03:41:24;;;;;;;0.17;0.17;;;1.90;98.50;;;;;;5086140;28;20631;-82
2021/03/21 03:44:14;;;;;;;0.20;0.20;;;1.90;98.50;;;;;;5111005;28;20788;-81
2021/03/21 03:47:07;;;;;;;0.10;0.10;;;1.90;98.50;;;;;;5085509;28;20166;-82
2021/03/21 03:49:54;;;;;;;0.30;0.30;;;1.90;98.50;;;;;;5093408;28;20174;-83
2021/03/21 03:52:46;;;;;;;0.10;0.10;;;1.90;98.50;;;;;;5075954;28;20179;-82
2021/03/21 03:55:28;;;;;;;0.27;0.27;;;1.90;98.50;;;;;;5079821;28;20259;-82
2021/03/21 03:58:21;;;;;;;0.10;0.10;;;1.90;98.50;;;;;;5091209;28;20177;-81
2021/03/21 04:01:08;;;;;;;0.30;0.30;;;2.00;98.50;;;;;;5111356;27;20190;-81
2021/03/21 04:03:54;;;;;;;0.20;0.20;;;1.90;98.50;;;;;;5091703;28;20301;-82
2021/03/21 04:06:47;;;;;;;0.10;0.10;;;1.90;98.50;;;;;;5107607;28;20259;-82
2021/03/21 04:09:32;;;;;;;0.30;0.30;;;1.90;98.50;;;;;;5106141;28;20261;-83
2021/03/21 04:12:15;;;;;;;0.20;0.20;;;1.90;98.50;;;;;;5087751;28;20186;-83
2021/03/21 04:15:00;;;;;;;0.20;0.20;;;1.90;98.50;;;;;;5082658;28;20702;-83
2021/03/21 04:17:38;;;;;;;0.30;0.30;;;1.90;98.50;;;;;;5095832;28;20817;-83
2021/03/21 04:20:28;;;;;;;0.30;0.30;;;1.90;98.50;;;;;;5078179;28;20231;-82
2021/03/21 04:23:13;;;;;;;0.30;0.30;;;1.90;98.50;;;;;;5072588;28;20630;-83
2021/03/21 04:25:46;;;;;;;0.10;0.10;;;1.90;98.50;;;;;;5082456;28;20914;-82
2021/03/21 04:28:34;;;;;;;0.17;0.17;;;1.90;98.50;;;;;;5109095;28;20186;-82
2021/03/21 04:31:04;;;;;;;0.30;0.30;;;1.90;98.50;;;;;;5089770;28;20190;-83
2021/03/21 04:33:38;;;;;;;0.20;0.20;;;2.00;98.50;;;;;;5107395;28;20668;-82
2021/03/21 04:36:09;;;;;;;0.10;0.10;;;2.00;98.50;;;;;;5081742;28;20175;-82
2021/03/21 04:38:46;;;;;;;0.20;0.20;;;2.00;98.50;;;;;;5096045;28;20354;-83
2021/03/21 04:41:16;;;;;;;0.03;0.03;;;2.00;98.50;;;;;;5105390;28;20178;-82
2021/03/21 04:44:10;;;;;;;0.10;0.10;;;1.90;98.50;;;;;;5090058;28;20216;-83
2021/03/21 04:47:02;;;;;;;0.10;0.10;;;2.00;98.50;;;;;;5075915;28;20220;-82
2021/03/21 04:49:28;;;;;;;0.10;0.10;;;2.00;98.50;;;;;;4998261;28;20188;-83
2021/03/21 04:52:07;;;;;;;0.20;0.20;;;2.00;98.50;;;;;;5001544;28;20196;-82
2021/03/21 04:54:38;;;;;;;0.20;0.20;;;2.00;98.50;;;;;;5023984;28;20628;-82
2021/03/21 04:57:34;;;;;;;0.20;0.20;;;2.00;98.50;;;;;;4991179;28;20240;-83
2021/03/21 05:00:01;;;;;;;0.33;0.20;;;2.00;98.50;;;;;;4986064;28;20201;-83
2021/03/21 05:02:30;;;;;;;0.47;0.30;;;2.00;98.50;;;;;;5016225;28;20192;-83
2021/03/21 05:05:07;;;;;;;0.20;0.20;;;2.00;98.50;;;;;;4995859;28;20235;-82
2021/03/21 05:07:49;;;;;;;0.30;0.30;;;2.00;98.50;;;;;;4992740;28;20185;-83
2021/03/21 05:10:30;;;;;;;0.23;0.23;;;2.00;98.50;;;;;;5011017;28;20173;-83
2021/03/21 05:13:02;;;;;;;0.40;0.40;;;2.10;98.50;;;;;;4999699;28;20203;-84
2021/03/21 05:15:49;;;;;;;1.47;0.30;;;2.10;98.50;;;;;;4994278;28;20740;-84
2021/03/21 05:18:51;;;;;;;0.30;0.30;;;2.10;98.50;;;;;;5018294;28;20184;-83
2021/03/21 05:21:35;;;;;;;0.40;0.40;;;2.10;98.50;;;;;;4991160;28;20212;-83
2021/03/21 05:24:21;;;;;;;0.33;0.33;;;2.20;98.50;;;;;;5014440;28;20214;-83
2021/03/21 05:26:53;;;;;;;0.47;0.43;;;2.20;98.50;;;;;;5054360;28;20190;-83
2021/03/21 05:29:43;;;;;;;0.27;0.27;;;2.10;98.50;;;;;;5113900;27;20625;-83
2021/03/21 05:32:12;;;;;;;0.40;0.40;;;2.20;98.50;;;;;;5095325;28;20178;-83
2021/03/21 05:34:38;;;;;;;0.87;0.70;;;2.20;98.50;;;;;;5086516;28;20185;-83
2021/03/21 05:37:27;;;;;;;0.40;0.40;;;2.20;98.50;;;;;;5080284;28;21053;-84
2021/03/21 05:40:01;;;;;;;0.33;0.33;;;2.20;98.50;;;;;;5118754;27;20213;-84
2021/03/21 05:42:46;;;;;;;0.70;0.70;;;2.20;98.50;;;;;;5083794;28;20185;-82
2021/03/21 05:45:14;;;;;;;0.40;0.40;;;2.10;98.50;;;;;;5069111;28;20198;-82
2021/03/21 05:48:17;;;;;;;0.63;0.40;;;2.10;98.50;;;;;;5070947;28;20182;-82
2021/03/21 05:51:10;;;;;;;0.50;0.50;;;2.20;98.50;;;;;;5086668;28;20185;-84
2021/03/21 05:53:57;;;;;;;0.40;0.40;;;2.20;98.50;;;;;;5090355;28;20856;-84
2021/03/21 05:56:48;;;;;;;0.67;0.67;;;2.20;98.50;;;;;;5086866;28;20263;-83
2021/03/21 05:59:51;;;;;;;0.30;0.30;;;2.20;98.50;;;;;;5127944;27;20193;-81
2021/03/21 06:02:42;;;;;;;0.50;0.50;;;2.20;98.50;;;;;;5084857;28;20587;-81
2021/03/21 06:05:26;;;;;;;0.40;0.40;;;2.30;98.50;;;;;;5106450;27;20250;-81
2021/03/21 06:08:19;;;;;;;0.20;0.20;;;2.30;98.50;;;;;;5097920;28;20193;-80
2021/03/21 06:10:53;;;;;;;0.17;0.17;;;2.30;98.50;;;;;;5101497;28;20233;-80
2021/03/21 06:13:46;;;;;;;0.20;0.20;;;2.30;98.50;;;;;;5087052;28;20186;-81
2021/03/21 06:16:49;;;;;;;0.30;0.30;;;2.40;98.50;;;;;;5060298;28;20194;-79
2021/03/21 06:19:30;;;;;;;1.00;0.40;;;2.40;98.50;;;;;;5072911;28;20268;-79
2021/03/21 06:22:43;;;;;;;0.97;0.47;;;2.50;98.50;;;;;;5085438;28;20195;-79
2021/03/21 06:25:26;;;;;;;0.40;0.40;;;2.50;98.50;;;;;;5071860;28;20214;-80
2021/03/21 06:28:17;;;;;;;0.60;0.60;;;2.50;98.50;;;;;;5103991;28;20182;-80
2021/03/21 06:34:20;;;;;;;0.30;0.30;;;2.50;98.50;;;;;;5080888;28;20696;-79
2021/03/21 06:36:59;;;;;;;0.33;0.33;;;2.50;98.50;;;;;;5100795;28;20186;-80
2021/03/21 06:39:47;;;;;;;0.47;0.47;;;2.60;98.50;;;;;;5104037;28;20227;-80
2021/03/21 06:42:15;;;;;;;0.23;0.23;;;2.60;98.50;;;;;;5099532;28;20306;-80
2021/03/21 06:45:07;;;;;;;0.30;0.30;;;2.60;98.50;;;;;;5089186;28;20289;-80
2021/03/21 06:48:00;;;;;;;0.67;0.40;;;2.60;98.50;;;;;;5108952;28;20189;-80
2021/03/21 06:50:50;;;;;;;0.53;0.43;;;2.70;98.50;;;;;;5079102;28;20278;-81
2021/03/21 06:53:28;;;;;;;0.50;0.50;;;2.70;98.50;;;;;;5083675;28;20182;-80
2021/03/21 06:55:57;;;;;;;0.70;0.70;;;2.70;98.50;;;;;;5093165;28;20189;-81
2021/03/21 06:58:44;;;;;;;1.13;0.50;;;2.80;98.50;;;;;;5102858;28;20219;-80
2021/03/21 07:01:34;;;;;;;1.80;0.43;;;2.80;98.50;;;;;;5092685;28;20572;-78
2021/03/21 07:04:24;;;;;;;0.30;0.30;;;2.80;98.50;;;;;;5110248;28;20225;-79
2021/03/21 07:07:13;;;;;;;0.27;0.27;;;2.70;98.20;;;;;;5090210;28;20194;-77
2021/03/21 07:10:02;;;;;;;0.50;0.50;;;2.70;98.20;;;;;;5083423;28;20189;-80
2021/03/21 07:12:57;;;;;;;0.77;0.77;;;2.60;98.40;;;;;;5093205;28;20728;-79
2021/03/21 07:15:41;;;;;;;2.07;1.50;;;2.70;98.50;;;;;;5109949;28;20229;-80
2021/03/21 07:18:25;;;;;;;0.40;0.40;;;2.70;98.50;;;;;;5075611;28;20649;-83
2021/03/21 07:21:21;;;;;;;1.17;0.70;;;2.60;98.50;;;;;;5082504;28;20179;-85
2021/03/21 07:23:47;;;;;;;0.50;0.40;;;;;;;;;;5114317;27;20230;-85
2021/03/21 07:26:27;;;;;;;0.37;0.37;;;2.70;98.50;;;;;;5077826;28;20647;-84
2021/03/21 07:29:13;;;;;;;1.10;0.50;;;2.70;98.50;;;;;;5081130;28;20174;-81
2021/03/21 07:31:45;;;;;;;0.97;0.40;;;2.70;98.50;;;;;;5117060;27;20336;-81
2021/03/21 07:34:30;;;;;;;0.60;0.60;;;2.70;98.50;;;;;;5107689;28;20198;-80
2021/03/21 07:37:06;;;;;;;0.53;0.53;;;2.70;98.50;;;;;;5091340;28;20625;-80
2021/03/21 07:39:47;;;;;;;0.77;0.77;;;2.70;98.50;;;;;;5075500;28;20190;-84
2021/03/21 07:42:34;;;;;;;0.30;0.30;;;2.80;98.50;;;;;;5093276;28;20276;-80
2021/03/21 07:45:43;;;;;;;0.50;0.40;;;2.80;98.50;;;;;;5085291;28;20209;-77
2021/03/21 07:48:15;;;;;;;0.20;0.20;;;2.80;98.50;;;;;;4971860;28;20186;-80
2021/03/21 07:50:49;;;;;;;0.40;0.30;;;2.80;98.50;;;;;;4968831;28;20537;-80
2021/03/21 07:53:55;;;;;;;0.30;0.30;;;2.90;98.50;;;;;;4992543;28;20181;-82
2021/03/21 07:56:28;;;;;;;0.27;0.27;;;2.90;98.50;;;;;;4949832;28;20860;-78
2021/03/21 07:59:00;;;;;;;1.30;0.40;;;3.00;98.50;;;;;;4945737;28;20294;-76
2021/03/21 08:01:26;;;;;;;0.17;0.10;;;3.00;98.30;;;;;;4940412;29;20266;-80
2021/03/21 08:04:12;;;;;;;0.57;0.33;;;3.00;98.30;;;;;;4957509;28;20231;-75
2021/03/21 08:06:57;;;;;;;0.53;0.53;;;3.00;98.00;;;;;;4947894;29;20715;-84
2021/03/21 08:09:37;;;;;;;0.40;0.40;;;3.00;98.00;;;;;;4953662;28;20191;-78
2021/03/21 08:12:15;;;;;;;0.37;0.37;;;3.00;98.00;;;;;;4937393;28;20237;-79
2021/03/21 08:14:52;;;;;;;0.50;0.50;;;2.90;97.80;;;;;;4948122;28;20941;-78
2021/03/21 08:17:19;;;;;;;3.13;0.43;;;2.90;97.80;;;;;;4930973;29;20727;-79
2021/03/21 08:19:45;;;;;;;0.53;0.53;;;2.90;97.90;;;;;;4947286;28;20187;-79
2021/03/21 08:22:18;;;;;;;0.47;0.47;;;2.90;98.20;;;;;;4994330;28;20192;-78
2021/03/21 08:24:48;;;;;;;0.43;0.43;;;2.90;97.90;;;;;;5052341;28;20966;-78
2021/03/21 08:27:25;;;;;;;0.50;0.50;;;2.80;98.10;;;;;;5053256;28;20262;-79
2021/03/21 08:30:05;;;;;;;0.57;0.57;;;2.90;98.40;;;;;;5050526;28;20691;-78
2021/03/21 08:32:34;;;;;;;0.90;0.90;;;2.90;98.10;;;;;;5092441;28;20408;-79
2021/03/21 08:35:16;;;;;;;0.40;0.40;;;2.90;98.20;;;;;;5072976;28;20243;-79
2021/03/21 08:37:53;;;;;;;0.30;0.30;;;2.90;98.50;;;;;;5087423;28;20230;-77
2021/03/21 08:40:38;;;;;;;0.40;0.40;;;3.00;98.50;;;;;;5071142;28;20189;-78
2021/03/21 08:43:12;;;;;;;0.57;0.57;;;3.00;98.30;;;;;;5085180;28;20170;-77
2021/03/21 08:45:45;;;;;;;0.93;0.93;;;3.00;98.40;;;;;;5071354;28;20183;-79
2021/03/21 08:48:10;;;;;;;0.70;0.50;;;3.10;98.50;;;;;;5101788;28;20649;-78
2021/03/21 08:50:42;;;;;;;2.10;0.80;;;3.10;98.50;;;;;;5093730;28;20193;-78
2021/03/21 08:53:26;;;;;;;0.50;0.40;;;3.20;98.50;;;;;;5096620;28;20722;-78
2021/03/21 08:56:22;;;;;;;0.43;0.43;;;3.30;98.40;;;;;;5106127;28;20307;-78
2021/03/21 08:59:09;;;;;;;0.43;0.43;;;3.40;98.00;;;;;;5106537;27;20186;-79
2021/03/21 09:01:36;;;;;;;0.47;0.47;;;3.40;98.00;;;;;;5103529;28;20624;-77
2021/03/21 09:04:18;;;;;;;0.40;0.40;;;3.50;97.40;;;;;;5092200;28;20217;-79
2021/03/21 09:06:49;;;;;;;0.40;0.40;;;3.60;97.50;;;;;;5089296;28;20722;-82
2021/03/21 09:09:23;;;;;;;0.60;0.60;;;3.70;97.50;;;;;;5076387;28;20755;-82
2021/03/21 09:11:54;;;;;;;0.60;0.60;;;3.70;96.80;;;;;;5070142;28;20181;-83
2021/03/21 09:14:31;;;;;;;1.63;0.57;;;3.80;96.50;;;;;;5089629;28;20181;-79
2021/03/21 09:17:17;;;;;;;0.87;0.70;;;3.70;96.10;;;;;;5072565;28;20285;-78
2021/03/21 09:20:02;;;;;;;3.47;0.73;;;3.80;96.30;;;;;;5104139;28;20182;-76
2021/03/21 09:22:40;;;;;;;0.80;0.53;;;3.90;96.70;;;;;;5094407;28;20839;-78
2021/03/21 09:25:14;;;;;;;0.53;0.53;;;4.10;96.30;;;;;;5077750;28;20585;-75
2021/03/21 09:27:42;;;;;;;0.60;0.60;;;4.20;94.30;;;;;;5098380;28;20223;-76
2021/03/21 09:30:34;;;;;;;0.93;0.80;;;4.20;94.60;;;;;;5096167;28;20190;-77
2021/03/21 09:33:04;;;;;;;0.70;0.70;;;4.30;95.20;;;;;;5075535;28;20181;-76
2021/03/21 09:35:45;;;;;;;0.80;0.80;;;4.50;95.60;;;;;;5075400;28;20225;-84
2021/03/21 09:38:24;;;;;;;0.53;0.53;;;4.70;94.10;;;;;;5107218;27;20975;-80
2021/03/21 09:41:15;;;;;;;0.70;0.70;;;5.00;93.20;;;;;;5077846;28;20232;-80
2021/03/21 09:43:42;;;;;;;0.40;0.40;;;5.10;91.70;;;;;;5084798;28;20214;-80
2021/03/21 09:46:19;;;;;;;2.23;0.63;;;5.40;92.00;;;;;;5083302;28;20194;-79
2021/03/21 09:49:13;;;;;;;0.80;0.80;;;5.70;90.90;;;;;;5096468;28;20269;-75
2021/03/21 09:51:46;;;;;;;0.87;0.87;;;5.90;90.10;;;;;;5088988;28;20182;-74
2021/03/21 09:54:15;;;;;;;0.50;0.50;;;5.90;90.10;;;;;;5087493;28;20196;-74
2021/03/21 09:57:00;;;;;;;1.33;0.80;;;6.10;90.40;;;;;;5086619;28;20178;-75
2021/03/21 09:59:49;;;;;;;0.50;0.50;;;6.40;89.00;;;;;;5069808;28;20190;-75
2021/03/21 10:02:35;;;;;;;0.73;0.50;;;6.70;87.10;;;;;;5084778;28;20938;-75
2021/03/21 10:05:08;;;;;;;0.50;0.50;;;6.70;87.10;;;;;;5067474;28;20290;-75
2021/03/21 10:07:40;;;;;;;1.90;1.17;;;6.70;87.10;;;;;;5072227;28;20186;-74
2021/03/21 10:10:16;;;;;;;0.70;0.70;;;6.70;86.80;;;;;;5083409;28;20194;-73
2021/03/21 10:12:43;;;;;;;0.67;0.53;;;6.70;86.90;;;;;;5087158;28;20181;-73
2021/03/21 10:15:18;;;;;;;1.50;0.70;;;6.60;86.70;;;;;;5088840;28;20338;-79
2021/03/21 10:17:50;;;;;;;0.87;0.87;;;6.60;87.40;;;;;;5098226;28;20172;-75
2021/03/21 10:20:17;;;;;;;0.80;0.80;;;6.50;87.50;;;;;;5096645;28;20201;-76
2021/03/21 10:22:43;;;;;;;0.60;0.60;;;6.50;87.80;;;;;;5095138;28;20178;-74
2021/03/21 10:25:08;;;;;;;0.40;0.40;;;6.40;86.80;;;;;;5071736;28;20217;-75
2021/03/21 10:27:36;;;;;;;0.40;0.40;;;6.20;87.20;;;;;;5102371;28;20217;-75
2021/03/21 10:30:21;;;;;;;0.30;0.30;;;6.00;86.90;;;;;;5091059;28;20178;-75
2021/03/21 10:32:48;;;;;;;0.43;0.43;;;5.70;87.60;;;;;;5087292;28;20251;-74
2021/03/21 10:35:34;;;;;;;0.40;0.40;;;5.50;88.40;;;;;;5085756;28;20895;-76
2021/03/21 10:38:04;;;;;;;0.30;0.30;;;5.40;88.50;;;;;;5081906;28;20185;-76
2021/03/21 10:40:30;;;;;;;0.50;0.50;;;5.40;89.10;;;;;;5103158;28;20192;-76
2021/03/21 10:42:56;;;;;;;0.73;0.70;;;5.10;88.50;;;;;;5075553;28;20178;-76
2021/03/21 10:45:31;;;;;;;0.30;0.30;;;5.10;90.20;;;;;;5091205;28;20292;-75
2021/03/21 10:47:57;;;;;;;0.50;0.40;;;5.20;89.90;;;;;;5090899;28;20172;-76
2021/03/21 10:50:29;;;;;;;0.23;0.23;;;5.20;89.90;;;;;;5097023;28;20251;-77
2021/03/21 10:53:13;;;;;;;0.30;0.30;;;5.10;88.80;;;;;;5080724;28;20214;-76
2021/03/21 10:55:59;;;;;;;1.07;0.50;;;5.00;88.80;;;;;;5099387;28;20189;-78
2021/03/21 10:58:30;;;;;;;0.43;0.43;;;4.80;88.70;;;;;;5083433;28;20182;-77
2021/03/21 11:01:15;;;;;;;0.33;0.33;;;4.90;89.40;;;;;;5116387;28;20184;-77
2021/03/21 11:03:41;;;;;;;0.50;0.50;;;4.90;89.10;;;;;;5063877;28;20244;-77
2021/03/21 11:06:15;;;;;;;0.30;0.30;;;5.00;89.80;;;;;;5070619;28;20650;-77
2021/03/21 11:08:41;;;;;;;0.87;0.40;;;5.10;88.80;;;;;;5090409;28;20181;-77
2021/03/21 11:11:24;;;;;;;0.30;0.30;;;5.20;87.90;;;;;;5097515;28;20179;-77
2021/03/21 11:13:50;;;;;;;0.60;0.60;;;5.20;87.30;;;;;;5069256;28;20186;-77
2021/03/21 11:16:20;;;;;;;0.30;0.30;;;5.20;87.90;;;;;;5090208;28;20577;-78
2021/03/21 11:19:09;;;;;;;0.83;0.60;;;5.10;87.00;;;;;;5077656;28;20245;-77
2021/03/21 11:21:38;;;;;;;0.70;0.47;;;5.20;88.20;;;;;;5073039;28;20179;-78
2021/03/21 11:24:17;;;;;;;0.77;0.50;;;5.30;88.20;;;;;;5086957;28;20210;-77
2021/03/21 11:26:43;;;;;;;0.40;0.40;;;5.20;87.80;;;;;;5101383;28;20910;-78
2021/03/21 11:29:22;;;;;;;0.50;0.50;;;5.20;87.90;;;;;;5070603;28;20178;-78
2021/03/21 11:31:50;;;;;;;0.93;0.40;;;5.30;88.50;;;;;;5088468;28;20184;-77
2021/03/21 11:34:19;;;;;;;0.23;0.23;;;5.30;88.70;;;;;;5098497;28;20185;-77
2021/03/21 11:37:00;;;;;;;0.90;0.43;;;5.40;88.80;;;;;;5098304;28;20186;-74
2021/03/21 11:39:32;;;;;;;0.50;0.50;;;5.50;88.00;;;;;;5090746;28;20651;-77
2021/03/21 11:41:59;;;;;;;0.30;0.30;;;5.60;88.20;;;;;;5090266;28;20169;-76
2021/03/21 11:44:29;;;;;;;0.27;0.27;;;5.70;88.30;;;;;;5098040;28;20215;-78
2021/03/21 11:47:09;;;;;;;0.20;0.20;;;5.50;87.40;;;;;;5073202;28;20178;-77
2021/03/21 11:49:35;;;;;;;0.40;0.40;;;5.50;87.90;;;;;;5102771;28;20186;-76
2021/03/21 11:52:03;;;;;;;0.30;0.30;;;5.40;88.30;;;;;;5099319;28;20235;-78
2021/03/21 11:54:32;;;;;;;0.20;0.20;;;5.40;88.70;;;;;;5098024;28;20174;-85
2021/03/21 11:57:30;;;;;;;0.27;0.27;;;5.40;88.50;;;;;;5084598;28;20200;-78
2021/03/21 12:00:00;;;;;;;0.80;0.30;;;5.40;88.30;;;;;;5009670;28;20254;-75
2021/03/21 12:03:00;;;;;;;0.20;0.20;;;5.50;88.20;;;;;;5014316;28;20196;-78
2021/03/21 12:05:32;;;;;;;0.27;0.27;;;5.50;87.60;;;;;;5003141;28;20263;-76
2021/03/21 12:08:07;;;;;;;0.20;0.20;;;5.60;88.80;;;;;;5013974;28;20186;-77
2021/03/21 12:10:36;;;;;;;0.30;0.30;;;5.70;88.30;;;;;;5009724;28;20204;-77
2021/03/21 12:13:29;;;;;;;0.20;0.20;;;5.80;87.20;;;;;;5014522;28;20193;-78
2021/03/21 12:15:55;;;;;;;0.27;0.27;;;5.80;87.20;;;;;;4998964;28;20181;-73
2021/03/21 12:18:26;;;;;;;0.20;0.20;;;6.00;88.00;;;;;;5001712;28;20871;-73
2021/03/21 12:20:56;;;;;;;0.20;0.20;;;6.20;87.60;;;;;;5008699;28;20263;-74
2021/03/21 12:23:35;;;;;;;0.73;0.33;;;6.20;86.70;;;;;;5010254;28;20212;-73
2021/03/21 12:26:03;;;;;;;0.20;0.20;;;6.60;86.50;;;;;;4990898;28;20196;-74
2021/03/21 12:28:29;;;;;;;0.23;0.23;;;6.70;86.50;;;;;;5004566;28;21031;-72
2021/03/21 12:31:03;;;;;;;1.43;0.33;;;6.80;85.30;;;;;;4997741;28;20200;-75
2021/03/21 12:33:37;;;;;;;0.60;0.60;;;7.10;85.70;;;;;;4991505;28;20278;-75
2021/03/21 12:36:08;;;;;;;0.30;0.30;;;7.30;82.10;;;;;;5018916;28;20189;-75
2021/03/21 12:38:36;;;;;;;0.30;0.30;;;7.30;82.10;;;;;;5077095;28;20180;-75
2021/03/21 12:41:38;;;;;;;0.50;0.50;;;7.50;83.40;;;;;;5072278;28;20197;-75
2021/03/21 12:44:37;;;;;;;0.20;0.20;;;7.80;83.90;;;;;;5102018;28;20470;-76
2021/03/21 12:47:03;;;;;;;0.37;0.37;;;8.10;81.60;;;;;;5043000;28;20187;-75
2021/03/21 12:49:50;;;;;;;0.50;0.50;;;8.20;80.30;;;;;;5040818;28;20896;-75
2021/03/21 12:52:42;;;;;;;0.23;0.23;;;8.30;80.60;;;;;;5028153;28;20266;-75
2021/03/21 12:55:09;;;;;;;0.50;0.50;;;8.20;79.00;;;;;;4996917;28;20207;-75
2021/03/21 12:57:35;;;;;;;0.43;0.43;;;8.10;79.80;;;;;;4970597;28;20258;-75
2021/03/21 13:00:00;;;;;;;0.40;0.40;;;7.80;79.50;;;;;;4986850;28;20202;-75
2021/03/21 13:02:30;;;;;;;0.30;0.30;;;7.40;79.60;;;;;;4978083;28;20696;-74
2021/03/21 13:04:57;;;;;;;0.90;0.60;;;6.20;83.50;;;;;;4980158;28;20205;-75
2021/03/21 13:07:24;;;;;;;0.53;0.30;;;6.20;83.50;;;;;;4986214;28;20240;-75
2021/03/21 13:09:52;;;;;;;0.40;0.40;;;6.10;85.50;;;;;;4984570;28;20200;-75
2021/03/21 13:12:18;;;;;;;0.50;0.50;;;6.10;84.90;;;;;;4986156;28;20212;-73
2021/03/21 13:14:44;;;;;;;0.50;0.50;;;6.20;85.50;;;;;;4965580;28;20181;-73
2021/03/21 13:17:10;;;;;;;0.43;0.43;;;6.20;85.40;;;;;;4986094;28;20194;-74
2021/03/21 13:19:36;;;;;;;0.33;0.33;;;6.10;84.70;;;;;;4983852;28;20721;-75
2021/03/21 13:22:03;;;;;;;0.73;0.40;;;6.20;84.70;;;;;;4998112;28;20373;-76
2021/03/21 13:24:29;;;;;;;0.30;0.30;;;;;;;;;;5043517;28;20311;-76
2021/03/21 13:27:01;;;;;;;0.53;0.53;;;5.90;85.60;;;;;;5049893;28;20270;-79
2021/03/21 13:29:27;;;;;;;0.50;0.50;;;5.90;85.60;;;;;;5031383;28;20318;-76
2021/03/21 13:31:53;;;;;;;0.40;0.40;;;5.80;84.90;;;;;;5064877;28;20262;-76
2021/03/21 13:34:20;;;;;;;0.30;0.30;;;5.70;85.50;;;;;;5067394;28;20268;-78
2021/03/21 13:36:46;;;;;;;0.40;0.40;;;5.70;86.50;;;;;;5099080;28;20178;-76
2021/03/21 13:39:15;;;;;;;0.60;0.60;;;5.70;86.50;;;;;;5087548;28;20274;-77
2021/03/21 13:41:40;;;;;;;0.37;0.37;;;5.10;85.60;;;;;;5087692;28;20190;-77
2021/03/21 13:44:07;;;;;;;0.27;0.27;;;4.90;86.50;;;;;;5080493;28;21051;-77
2021/03/21 13:46:32;;;;;;;0.43;0.43;;;4.90;86.50;;;;;;5093885;28;20626;-76
2021/03/21 13:48:58;;;;;;;0.50;0.50;;;4.60;87.80;;;;;;5097648;28;20192;-77
2021/03/21 13:51:24;;;;;;;0.30;0.30;;;4.50;88.30;;;;;;5080008;28;20558;-77